Time;durP1;ratioP1;P1;durP2;ratioP2;P2;SDS_P1;SDS_P2;PMS_P1;PMS_P2;Temp;Humidity;BMP_temperature;BMP_pressure;BME280_temperature;BME280_humidity;BME280_pressure;Samples;Min_cycle;Max_cycle;Signal;HPM_P1;HPM_P2
2022/08/26 00:01:13;;;;;;;9.40;3.50;;;;;;;26.05;32.89;99833.69;117405;1183;23560;-67
2022/08/26 00:03:40;;;;;;;6.90;2.90;;;;;;;26.05;32.81;99835.34;117358;1185;22921;-61
2022/08/26 00:06:07;;;;;;;13.30;3.70;;;;;;;26.05;32.66;99833.23;117290;1185;22999;-61
2022/08/26 00:08:38;;;;;;;;;;;;;;;26.04;32.66;99830.39;117341;1186;23558;-60
2022/08/26 00:11:07;;;;;;;9.20;3.50;;;;;;;26.01;32.71;99828.86;117340;1186;21861;-61
2022/08/26 00:13:35;;;;;;;7.70;3.10;;;;;;;26.00;32.87;99826.98;117343;1186;23635;-66
2022/08/26 00:16:03;;;;;;;7.70;3.00;;;;;;;25.98;32.77;99826.52;117338;1185;23089;-67
2022/08/26 00:18:30;;;;;;;6.20;2.60;;;;;;;25.96;32.76;99827.30;117379;1185;21864;-66
2022/08/26 00:21:05;;;;;;;9.10;2.90;;;;;;;25.95;32.79;99823.41;117398;1186;22197;-60
2022/08/26 00:23:33;;;;;;;7.40;3.30;;;;;;;25.94;32.78;99824.42;117417;1186;21855;-61
2022/08/26 00:26:00;;;;;;;9.90;3.40;;;;;;;25.92;32.84;99826.70;117379;1186;21861;-66
2022/08/26 00:28:27;;;;;;;6.30;3.30;;;;;;;25.95;32.91;99827.49;117389;1186;23602;-67
2022/08/26 00:30:56;;;;;;;6.90;2.60;;;;;;;25.93;32.80;99827.91;117330;1185;22927;-60
2022/08/26 00:33:23;;;;;;;7.80;2.70;;;;;;;25.91;32.79;99824.09;117370;1186;22713;-60
2022/08/26 00:35:50;;;;;;;6.80;3.00;;;;;;;25.90;32.79;99823.46;117301;1180;22747;-61
2022/08/26 00:38:17;;;;;;;5.50;2.70;;;;;;;25.89;32.86;99823.73;117363;1185;22924;-66
2022/08/26 00:40:46;;;;;;;9.40;3.10;;;;;;;25.90;32.88;99822.23;117406;1183;22853;-67
2022/08/26 00:43:14;;;;;;;9.30;3.00;;;;;;;25.89;32.94;99821.98;117341;1185;22056;-61
2022/08/26 00:45:45;;;;;;;6.20;2.90;;;;;;;25.87;32.83;99821.90;117352;1184;22624;-61
2022/08/26 00:48:12;;;;;;;7.10;3.30;;;;;;;25.87;32.87;99818.90;117328;1185;21853;-65
2022/08/26 00:50:41;;;;;;;6.10;2.70;;;;;;;25.87;32.81;99816.94;117366;1186;22639;-66
2022/08/26 00:53:20;;;;;;;10.30;2.90;;;;;;;25.81;32.85;99818.67;117377;1181;21860;-60
2022/08/26 00:55:59;;;;;;;11.00;3.10;;;;;;;25.80;32.98;99818.27;117062;1187;22313;-66
2022/08/26 00:58:27;;;;;;;6.60;2.90;;;;;;;25.75;32.96;99819.71;117402;1185;22644;-61
2022/08/26 01:00:54;;;;;;;8.90;2.90;;;;;;;25.70;33.05;99814.55;117356;1182;22891;-61
2022/08/26 01:03:24;;;;;;;10.90;2.90;;;;;;;25.67;33.18;99816.01;117363;1185;21888;-67
2022/08/26 01:05:54;;;;;;;12.00;3.40;;;;;;;25.66;33.21;99821.34;117311;1182;22946;-67
2022/08/26 01:08:23;;;;;;;7.10;3.20;;;;;;;25.63;33.15;99820.71;117382;1186;21885;-67
2022/08/26 01:10:51;;;;;;;8.60;3.50;;;;;;;25.61;33.13;99823.05;117416;1185;21914;-67
2022/08/26 01:13:21;;;;;;;7.70;3.30;;;;;;;25.58;33.19;99827.65;117367;1185;21854;-67
2022/08/26 01:15:55;;;;;;;7.20;3.50;;;;;;;25.54;33.32;99827.77;117353;1185;21887;-60
2022/08/26 01:18:24;;;;;;;7.20;3.40;;;;;;;25.52;33.31;99827.40;117402;1186;21975;-66
2022/08/26 01:21:15;;;;;;;7.90;3.10;;;;;;;25.48;33.47;99824.26;117384;1186;23551;-60
2022/08/26 01:23:48;;;;;;;11.10;3.20;;;;;;;25.46;33.34;99819.67;117422;1185;23554;-67
2022/08/26 01:26:21;;;;;;;9.20;3.60;;;;;;;25.41;33.43;99813.94;117045;1187;22648;-60
2022/08/26 01:28:50;;;;;;;9.70;3.50;;;;;;;25.37;33.46;99811.73;117044;1188;23536;-67
2022/08/26 01:31:19;;;;;;;6.10;3.50;;;;;;;25.31;33.48;99808.44;117083;1187;22941;-66
2022/08/26 01:33:51;;;;;;;10.70;3.50;;;;;;;25.27;33.58;99803.96;117168;1189;22092;-60
2022/08/26 01:36:18;;;;;;;12.60;3.30;;;;;;;25.27;33.58;99804.65;117470;1186;23637;-60
2022/08/26 01:38:46;;;;;;;13.30;3.80;;;;;;;25.21;33.57;99806.02;117197;1185;22030;-66
2022/08/26 01:41:14;;;;;;;12.30;4.00;;;;;;;25.17;33.64;99808.23;117381;1185;22651;-66
2022/08/26 01:43:46;;;;;;;14.30;3.50;;;;;;;25.13;33.74;99807.47;117414;1186;23532;-67
2022/08/26 01:46:14;;;;;;;7.70;3.20;;;;;;;25.08;33.80;99805.98;117461;1186;21855;-60
2022/08/26 01:48:41;;;;;;;8.60;3.50;;;;;;;25.04;33.77;99801.46;116980;1188;21964;-60
2022/08/26 01:51:09;;;;;;;12.30;3.50;;;;;;;25.02;33.91;99803.33;117299;1185;23107;-67
2022/08/26 01:53:37;;;;;;;12.10;3.60;;;;;;;25.00;33.84;99800.61;117383;1182;23566;-61
2022/08/26 01:56:07;;;;;;;12.40;3.60;;;;;;;24.97;33.83;99796.34;117420;1188;21845;-61
2022/08/26 01:58:39;;;;;;;11.10;3.60;;;;;;;24.96;33.87;99797.15;117364;1180;22724;-61
2022/08/26 02:01:06;;;;;;;9.40;3.40;;;;;;;24.94;34.00;99795.27;117396;1186;22640;-66
2022/08/26 02:03:37;;;;;;;10.60;3.80;;;;;;;24.94;34.11;99793.70;117369;1185;21913;-61
2022/08/26 02:06:09;;;;;;;11.40;3.30;;;;;;;24.93;34.08;99791.83;117236;1185;21858;-60
2022/08/26 02:09:03;;;;;;;15.10;3.80;;;;;;;24.93;34.15;99794.33;117315;1186;21889;-61
2022/08/26 02:11:30;;;;;;;9.10;4.10;;;;;;;24.93;34.01;99789.30;117058;1185;23560;-66
2022/08/26 02:14:02;;;;;;;12.30;4.00;;;;;;;24.92;34.02;99787.79;117154;1188;21891;-66
2022/08/26 02:16:32;;;;;;;21.10;4.50;;;;;;;24.92;34.06;99788.30;116927;1189;23548;-61
2022/08/26 02:19:00;;;;;;;7.90;3.10;;;;;;;24.94;33.98;99788.85;117142;1188;21854;-66
2022/08/26 02:21:29;;;;;;;7.90;3.60;;;;;;;24.95;33.92;99788.40;117303;1185;22915;-67
2022/08/26 02:23:56;;;;;;;12.40;3.60;;;;;;;24.96;33.81;99786.56;117300;1185;23580;-60
2022/08/26 02:26:24;;;;;;;10.50;3.80;;;;;;;24.97;33.98;99792.05;117159;1188;21857;-61
2022/08/26 02:28:57;;;;;;;9.70;3.60;;;;;;;24.98;34.05;99794.86;117388;1183;21862;-60
2022/08/26 02:31:25;;;;;;;7.50;3.70;;;;;;;24.96;34.02;99795.86;117444;1185;22921;-60
2022/08/26 02:33:52;;;;;;;11.20;4.40;;;;;;;24.98;33.99;99800.77;117354;1185;21855;-66
2022/08/26 02:36:20;;;;;;;11.00;3.50;;;;;;;24.99;33.97;99801.89;117289;1189;23576;-60
2022/08/26 02:38:48;;;;;;;13.10;4.00;;;;;;;25.00;33.99;99798.09;117383;1185;21899;-66
2022/08/26 02:41:18;;;;;;;10.00;3.40;;;;;;;25.00;33.92;99797.36;117424;1186;22149;-65
2022/08/26 02:43:49;;;;;;;13.00;4.10;;;;;;;24.99;34.04;99802.63;117399;1186;21845;-67
2022/08/26 02:46:16;;;;;;;17.00;4.00;;;;;;;24.96;33.99;99803.00;117370;1185;23575;-65
2022/08/26 02:48:53;;;;;;;11.50;3.50;;;;;;;24.94;34.02;99806.44;117398;1186;21851;-59
2022/08/26 02:51:21;;;;;;;8.10;3.90;;;;;;;24.92;33.99;99804.81;117444;1185;22973;-60
2022/08/26 02:53:48;;;;;;;10.30;4.10;;;;;;;24.91;34.02;99806.87;117401;1186;21878;-60
2022/08/26 02:56:16;;;;;;;16.00;3.80;;;;;;;24.90;33.96;99810.00;117388;1185;21883;-60
2022/08/26 02:58:44;;;;;;;15.50;4.50;;;;;;;24.88;34.04;99807.44;117429;1186;22078;-60
2022/08/26 03:01:28;;;;;;;12.00;4.30;;;;;;;24.87;34.05;99808.13;117275;1185;22068;-66
2022/08/26 03:03:57;;;;;;;12.40;3.90;;;;;;;24.87;34.03;99810.80;117371;1186;21868;-60
2022/08/26 03:06:24;;;;;;;16.60;4.30;;;;;;;24.86;34.16;99813.03;117377;1185;22435;-61
2022/08/26 03:08:51;;;;;;;16.40;4.90;;;;;;;24.85;34.15;99815.80;117282;1186;21863;-65
2022/08/26 03:11:19;;;;;;;21.20;4.70;;;;;;;24.85;34.11;99818.66;117292;1186;21858;-61
2022/08/26 03:13:47;;;;;;;12.50;3.70;;;;;;;24.86;33.89;99816.98;117353;1186;23011;-66
2022/08/26 03:16:14;;;;;;;13.40;4.60;;;;;;;24.87;33.94;99816.55;117368;1186;23256;-60
2022/08/26 03:18:42;;;;;;;17.90;4.70;;;;;;;24.87;33.99;99815.27;117422;1186;21845;-66
2022/08/26 03:21:18;;;;;;;8.00;4.00;;;;;;;24.87;33.93;99817.77;117375;1185;21947;-60
2022/08/26 03:23:45;;;;;;;15.30;4.40;;;;;;;24.87;33.99;99819.19;117364;1188;21854;-66
2022/08/26 03:26:12;;;;;;;10.70;4.20;;;;;;;24.88;33.92;99818.44;117366;1186;21864;-60
2022/08/26 03:30:38;;;;;;;7.60;3.50;;;;;;;24.89;33.89;99821.38;117395;1184;22942;-60
2022/08/26 03:31:28;;;;;;;9.70;4.30;;;;;;;24.91;33.88;99825.73;117327;1184;22382;-66
2022/08/26 03:33:56;;;;;;;9.60;4.00;;;;;;;24.91;33.82;99827.10;117470;1186;23851;-66
2022/08/26 03:36:25;;;;;;;15.40;4.00;;;;;;;24.93;33.86;99827.71;117410;1186;21992;-60
2022/08/26 03:38:53;;;;;;;14.90;4.00;;;;;;;24.91;33.95;99823.77;117458;1183;22985;-60
2022/08/26 03:41:20;;;;;;;14.60;4.30;;;;;;;24.88;33.88;99826.13;117448;1182;22642;-66
2022/08/26 03:43:50;;;;;;;14.30;4.40;;;;;;;24.87;33.89;99826.42;117431;1186;24711;-60
2022/08/26 03:46:19;;;;;;;14.80;4.60;;;;;;;24.86;33.99;99826.86;117421;1182;21845;-66
2022/08/26 03:48:47;;;;;;;9.90;3.90;;;;;;;24.85;34.02;99827.80;117428;1186;21868;-61
2022/08/26 03:51:16;;;;;;;14.20;4.60;;;;;;;24.87;33.95;99827.64;117402;1186;22932;-60
2022/08/26 03:53:45;;;;;;;16.10;4.70;;;;;;;24.91;34.02;99828.95;117416;1183;21887;-60
2022/08/26 03:56:12;;;;;;;11.20;4.20;;;;;;;24.94;34.09;99832.31;117440;1186;22982;-67
2022/08/26 03:58:39;;;;;;;11.80;4.10;;;;;;;24.95;34.19;99835.63;117363;1186;22934;-66
2022/08/26 04:01:09;;;;;;;15.90;4.40;;;;;;;24.97;34.20;99837.09;117416;1184;21937;-61
2022/08/26 04:06:37;;;;;;;15.90;4.80;;;;;;;24.94;34.18;99835.83;117306;1182;21993;-66
2022/08/26 04:09:10;;;;;;;10.80;4.40;;;;;;;24.97;34.29;99840.15;117527;1185;21975;-60
2022/08/26 04:11:38;;;;;;;12.80;4.50;;;;;;;24.99;34.34;99842.64;117301;1186;22948;-66
2022/08/26 04:14:07;;;;;;;11.70;3.60;;;;;;;25.02;34.35;99845.85;117125;1187;22109;-60
2022/08/26 04:16:37;;;;;;;14.00;5.00;;;;;;;25.06;34.29;99844.98;117324;1186;21920;-66
2022/08/26 04:19:05;;;;;;;15.40;4.10;;;;;;;25.10;34.32;99847.13;117247;1185;21884;-66
2022/08/26 04:21:33;;;;;;;11.10;4.00;;;;;;;25.17;34.25;99849.10;118132;1186;21847;-66
2022/08/26 04:24:02;;;;;;;15.40;4.60;;;;;;;25.22;34.13;99849.78;117972;1186;22946;-66
2022/08/26 04:26:35;;;;;;;10.80;4.40;;;;;;;25.26;34.12;99851.21;117317;1185;21857;-60
2022/08/26 04:29:14;;;;;;;15.60;4.50;;;;;;;25.33;34.14;99853.55;117074;1183;22932;-60
2022/08/26 04:31:41;;;;;;;18.50;4.50;;;;;;;25.40;34.08;99852.25;117125;1187;22927;-60
2022/08/26 04:34:09;;;;;;;16.20;4.10;;;;;;;25.44;34.10;99853.57;117176;1186;21870;-61
2022/08/26 04:36:37;;;;;;;12.30;4.40;;;;;;;25.50;34.31;99853.62;117296;1186;22944;-60
2022/08/26 04:39:04;;;;;;;14.70;4.90;;;;;;;25.57;34.28;99853.96;117474;1185;23550;-60
2022/08/26 04:41:31;;;;;;;11.00;3.70;;;;;;;25.62;34.12;99855.26;117373;1186;21898;-60
2022/08/26 04:43:58;;;;;;;13.60;4.20;;;;;;;25.70;34.07;99856.03;117339;1186;22619;-65
2022/08/26 04:46:26;;;;;;;15.10;4.90;;;;;;;25.77;34.01;99853.88;117398;1185;22892;-66
2022/08/26 04:48:54;;;;;;;16.20;4.80;;;;;;;25.83;34.10;99855.11;117405;1185;22312;-60
2022/08/26 04:51:32;;;;;;;12.40;4.50;;;;;;;25.89;33.99;99856.98;117413;1186;22921;-66
2022/08/26 04:53:59;;;;;;;12.50;4.70;;;;;;;25.93;34.09;99855.55;117327;1185;21924;-60
2022/08/26 04:56:29;;;;;;;11.20;4.20;;;;;;;25.98;34.02;99861.63;117316;1186;22772;-60
2022/08/26 04:58:57;;;;;;;13.30;4.60;;;;;;;26.04;33.98;99867.09;117346;1182;21900;-66
2022/08/26 05:01:25;;;;;;;16.10;4.60;;;;;;;26.09;33.97;99865.66;117290;1186;22964;-60
2022/08/26 05:03:53;;;;;;;15.50;5.10;;;;;;;26.17;34.15;99867.27;117407;1185;22437;-60
2022/08/26 05:06:20;;;;;;;15.10;4.80;;;;;;;26.22;34.00;99867.69;117374;1186;21894;-60
2022/08/26 05:08:47;;;;;;;18.80;5.30;;;;;;;26.28;33.98;99872.38;117111;1182;21859;-66
2022/08/26 05:11:14;;;;;;;17.60;5.10;;;;;;;26.35;34.11;99869.98;117241;1185;23569;-59
2022/08/26 05:13:44;;;;;;;16.90;4.90;;;;;;;26.42;33.92;99865.45;117331;1189;21860;-66
2022/08/26 05:16:14;;;;;;;17.70;4.70;;;;;;;26.49;33.88;99862.12;117356;1186;22951;-60
2022/08/26 05:18:42;;;;;;;17.80;4.40;;;;;;;26.56;33.72;99863.34;117379;1181;23649;-66
2022/08/26 05:21:40;;;;;;;17.00;4.60;;;;;;;26.63;33.64;99861.79;117217;1186;21852;-66
2022/08/26 05:24:10;;;;;;;15.20;4.60;;;;;;;26.72;33.69;99861.73;117077;1188;21856;-66
2022/08/26 05:26:37;;;;;;;16.80;4.90;;;;;;;26.79;33.54;99862.21;117204;1186;23605;-59
2022/08/26 05:29:05;;;;;;;13.00;4.60;;;;;;;26.89;33.54;99863.02;117218;1186;21856;-60
2022/08/26 05:31:33;;;;;;;12.10;4.80;;;;;;;27.00;33.54;99862.50;117140;1185;21892;-67
2022/08/26 05:34:01;;;;;;;16.40;5.50;;;;;;;27.12;33.48;99860.05;117565;1184;21859;-66
2022/08/26 05:36:32;;;;;;;17.10;5.00;;;;;;;27.23;33.30;99858.34;117323;1186;22651;-60
2022/08/26 05:39:03;;;;;;;19.70;5.10;;;;;;;27.33;33.23;99859.04;117242;1188;21845;-60
2022/08/26 05:41:32;;;;;;;17.50;5.50;;;;;;;27.42;33.32;99858.03;117460;1185;24159;-66
2022/08/26 05:44:04;;;;;;;16.60;5.40;;;;;;;27.51;33.18;99860.83;117380;1185;21964;-60
2022/08/26 05:46:32;;;;;;;15.50;5.20;;;;;;;27.61;33.10;99857.03;118262;1185;21858;-66
2022/08/26 05:49:00;;;;;;;18.70;5.10;;;;;;;27.69;32.87;99858.48;117436;1185;21854;-60
2022/08/26 05:51:27;;;;;;;22.80;5.20;;;;;;;27.72;32.69;99861.11;117382;1186;21845;-60
2022/08/26 05:53:57;;;;;;;16.00;5.20;;;;;;;27.74;32.83;99860.91;117412;1185;21861;-60
2022/08/26 05:56:26;;;;;;;17.70;5.70;;;;;;;27.78;32.73;99861.98;117376;1186;23002;-66
2022/08/26 05:58:54;;;;;;;30.40;5.80;;;;;;;27.85;32.91;99861.38;117159;1188;22932;-60
2022/08/26 06:01:25;;;;;;;17.00;4.90;;;;;;;27.91;32.85;99858.98;117083;1187;21897;-60
2022/08/26 06:03:55;;;;;;;17.20;6.00;;;;;;;27.92;32.68;99861.94;117322;1183;22640;-60
2022/08/26 06:06:29;;;;;;;24.10;5.90;;;;;;;27.93;32.68;99862.03;117228;1186;21857;-60
2022/08/26 06:08:58;;;;;;;18.50;6.10;;;;;;;27.92;32.79;99863.77;117417;1186;22946;-60
2022/08/26 06:11:26;;;;;;;20.70;6.30;;;;;;;27.95;32.94;99861.89;117456;1183;23457;-61
2022/08/26 06:13:54;;;;;;;20.10;5.10;;;;;;;27.99;32.91;99863.34;117462;1186;23018;-61
2022/08/26 06:16:27;;;;;;;18.60;5.00;;;;;;;28.00;32.85;99865.86;117384;1186;21843;-67
2022/08/26 06:18:55;;;;;;;17.90;5.30;;;;;;;28.01;32.85;99863.75;117349;1186;22943;-67
2022/08/26 06:21:23;;;;;;;27.90;6.10;;;;;;;28.10;32.90;99867.11;117370;1183;22903;-68
2022/08/26 06:26:41;;;;;;;16.80;4.70;;;;;;;28.30;32.70;99859.90;117356;1186;22979;-68
2022/08/26 06:29:18;;;;;;;20.90;6.10;;;;;;;28.40;32.85;99859.48;117419;1184;22926;-67
2022/08/26 06:31:51;;;;;;;16.00;5.30;;;;;;;28.47;32.82;99854.05;117125;1188;21993;-67
2022/08/26 06:34:19;;;;;;;31.30;7.20;;;;;;;28.54;32.94;99852.55;117263;1186;23636;-60
2022/08/26 06:36:48;;;;;;;22.10;5.90;;;;;;;28.66;32.66;99850.52;117386;1182;22628;-61
2022/08/26 06:39:19;;;;;;;23.70;6.80;;;;;;;28.73;32.78;99850.52;117089;1183;22908;-59
2022/08/26 06:41:47;;;;;;;27.10;6.90;;;;;;;28.83;32.60;99845.79;119334;1185;21828;-68
2022/08/26 06:44:15;;;;;;;23.60;6.00;;;;;;;28.95;32.54;99846.39;117691;1185;24225;-60
2022/08/26 06:46:43;;;;;;;27.60;5.80;;;;;;;29.05;32.47;99844.86;119514;1184;21792;-67
2022/08/26 06:49:10;;;;;;;28.70;6.90;;;;;;;29.17;32.34;99844.48;119515;1185;21795;-67
2022/08/26 06:51:38;;;;;;;26.90;6.50;;;;;;;29.31;32.37;99841.48;119441;1185;21776;-67
2022/08/26 06:54:05;;;;;;;25.50;6.30;;;;;;;29.50;32.30;99837.80;117985;1182;21924;-60
2022/08/26 06:56:38;;;;;;;25.70;7.40;;;;;;;29.66;32.25;99840.15;118206;1185;22924;-68
2022/08/26 06:59:06;;;;;;;34.20;7.10;;;;;;;29.91;32.06;99834.70;117291;1186;22924;-67
2022/08/26 07:01:37;;;;;;;33.70;7.60;;;;;;;30.15;32.08;99836.13;117351;1182;21970;-67
2022/08/26 07:04:09;;;;;;;28.90;7.60;;;;;;;30.41;31.86;99835.81;117367;1186;21844;-67
2022/08/26 07:06:39;;;;;;;36.60;6.60;;;;;;;30.64;31.72;99840.05;117414;1183;24239;-67
2022/08/26 07:09:07;;;;;;;27.10;6.80;;;;;;;30.94;31.69;99837.63;117355;1182;21864;-60
2022/08/26 07:11:36;;;;;;;28.00;6.70;;;;;;;31.27;31.59;99842.41;117409;1185;21856;-66
2022/08/26 07:14:04;;;;;;;30.60;6.60;;;;;;;31.59;31.11;99838.98;117385;1186;22927;-67
2022/08/26 07:16:32;;;;;;;27.60;6.90;;;;;;;31.85;30.72;99835.40;117243;1186;21860;-60
2022/08/26 07:19:02;;;;;;;33.50;7.00;;;;;;;32.12;30.66;99839.02;117421;1182;22162;-67
2022/08/26 07:21:40;;;;;;;30.20;7.70;;;;;;;32.35;30.65;99840.42;117302;1185;21862;-67
2022/08/26 07:24:08;;;;;;;32.50;7.00;;;;;;;32.61;30.45;99835.89;119374;1186;22306;-63
2022/08/26 07:26:36;;;;;;;44.80;8.70;;;;;;;32.88;30.03;99835.84;119361;1186;21797;-62
2022/08/26 07:29:04;;;;;;;38.90;9.70;;;;;;;33.28;29.91;99836.92;117738;1185;23719;-61
2022/08/26 07:31:33;;;;;;;39.00;8.30;;;;;;;33.49;29.98;99837.61;117087;1188;22927;-67
2022/08/26 07:34:09;;;;;;;35.70;8.10;;;;;;;33.74;29.77;99842.48;117586;1186;23466;-67
2022/08/26 07:36:36;;;;;;;39.00;8.40;;;;;;;34.03;29.46;99841.73;117272;1186;21871;-61
2022/08/26 07:39:04;;;;;;;34.50;8.80;;;;;;;34.21;29.41;99834.15;117280;1186;23022;-67
2022/08/26 07:41:32;;;;;;;34.90;7.10;;;;;;;34.38;28.81;99836.09;117189;1188;21848;-67
2022/08/26 07:43:59;;;;;;;34.00;9.20;;;;;;;34.50;28.49;99838.92;117305;1184;22617;-61
2022/08/26 07:46:27;;;;;;;33.90;8.80;;;;;;;34.49;28.28;99839.58;117361;1185;23554;-60
2022/08/26 07:48:56;;;;;;;37.90;8.40;;;;;;;34.40;28.34;99838.48;117361;1186;22651;-60
2022/08/26 07:51:24;;;;;;;37.60;8.40;;;;;;;34.35;28.52;99836.59;117430;1186;21865;-61
2022/08/26 07:53:51;;;;;;;45.00;8.50;;;;;;;34.31;28.44;99832.36;117172;1186;21930;-68
2022/08/26 07:56:21;;;;;;;38.90;8.40;;;;;;;34.24;28.26;99830.30;117165;1188;21883;-68
2022/08/26 07:58:50;;;;;;;;;;;;;;;34.13;27.86;99833.59;117304;1187;22951;-60
2022/08/26 08:01:22;;;;;;;36.60;7.80;;;;;;;33.95;28.07;99838.17;117276;1186;24170;-61
2022/08/26 08:03:50;;;;;;;30.70;7.40;;;;;;;33.76;28.16;99839.71;117372;1186;21886;-60
2022/08/26 08:06:22;;;;;;;40.50;8.20;;;;;;;33.54;28.22;99838.92;117454;1186;23550;-63
2022/08/26 08:08:54;;;;;;;42.20;7.60;;;;;;;33.41;28.08;99838.69;117336;1186;22926;-68
2022/08/26 08:11:23;;;;;;;37.00;8.30;;;;;;;33.30;28.06;99835.06;117357;1182;22899;-61
2022/08/26 08:13:50;;;;;;;27.90;6.60;;;;;;;33.19;28.05;99840.17;117310;1186;22175;-61
2022/08/26 08:16:23;;;;;;;41.90;9.60;;;;;;;33.09;28.08;99844.77;117150;1188;21858;-68
2022/08/26 08:18:52;;;;;;;27.80;7.20;;;;;;;32.98;28.19;99845.34;117312;1186;22971;-62
2022/08/26 08:21:23;;;;;;;33.60;8.50;;;;;;;32.87;28.09;99846.59;117313;1186;23110;-67
2022/08/26 08:23:54;;;;;;;37.40;8.90;;;;;;;32.77;28.20;99842.90;117318;1186;24175;-61
2022/08/26 08:26:22;;;;;;;32.00;7.40;;;;;;;32.68;28.29;99842.02;117332;1185;23647;-67
2022/08/26 08:28:50;;;;;;;31.00;7.60;;;;;;;32.66;28.40;99841.34;117335;1186;23448;-61
2022/08/26 08:31:25;;;;;;;32.90;7.40;;;;;;;32.63;28.32;99838.94;117117;1188;22944;-61
2022/08/26 08:34:12;;;;;;;28.30;7.40;;;;;;;32.61;28.52;99843.81;117033;1183;22823;-61
2022/08/26 08:36:41;;;;;;;29.00;7.40;;;;;;;32.59;28.42;99838.11;117325;1185;21866;-61
2022/08/26 08:39:09;;;;;;;34.20;7.80;;;;;;;32.47;28.46;99837.61;117386;1186;21878;-68
2022/08/26 08:41:36;;;;;;;37.20;7.80;;;;;;;32.41;28.67;99835.65;117404;1186;22082;-62
2022/08/26 08:44:03;;;;;;;33.50;8.60;;;;;;;32.42;28.80;99835.47;117339;1185;21960;-68
2022/08/26 08:46:31;;;;;;;32.10;8.00;;;;;;;32.47;28.91;99831.22;117156;1186;23718;-68
2022/08/26 08:49:02;;;;;;;;;;;;;;;32.54;28.89;99832.53;117368;1186;21843;-69
2022/08/26 08:51:38;;;;;;;39.90;7.20;;;;;;;32.70;28.86;99828.61;117188;1188;22153;-62
2022/08/26 08:54:06;;;;;;;28.50;7.30;;;;;;;32.93;28.83;99825.66;117170;1187;21858;-68
2022/08/26 08:56:36;;;;;;;32.70;7.60;;;;;;;33.25;28.98;99827.08;117318;1180;23566;-62
2022/08/26 08:59:19;;;;;;;32.70;7.60;;;;;;;33.70;28.65;99826.70;117247;1186;21855;-69
2022/08/26 09:01:50;;;;;;;39.80;7.50;;;;;;;34.14;28.70;99826.64;117335;1186;22231;-68
2022/08/26 09:05:01;;;;;;;41.00;8.10;;;;;;;34.62;28.34;99828.86;117274;1183;23537;-61
2022/08/26 09:07:39;;;;;;;38.90;8.40;;;;;;;35.04;27.84;99826.70;117314;1186;22036;-69
2022/08/26 09:10:24;;;;;;;31.00;7.20;;;;;;;35.37;27.86;99825.68;117156;1188;22925;-62
2022/08/26 09:12:51;;;;;;;39.30;9.20;;;;;;;35.70;27.63;99825.06;117334;1183;24717;-61
2022/08/26 09:15:26;;;;;;;48.40;9.20;;;;;;;35.99;27.48;99823.96;117300;1180;22924;-62
2022/08/26 09:18:14;;;;;;;40.70;7.50;;;;;;;36.25;27.17;99816.40;117347;1186;22075;-69
2022/08/26 09:21:03;;;;;;;36.90;8.50;;;;;;;36.49;26.99;99816.71;117347;1186;22766;-68
2022/08/26 09:23:34;;;;;;;38.70;7.50;;;;;;;36.71;26.78;99818.58;117301;1186;22154;-62
2022/08/26 09:26:18;;;;;;;37.80;8.80;;;;;;;36.89;26.69;99817.17;117306;1186;23086;-68
2022/08/26 09:28:47;;;;;;;45.10;7.50;;;;;;;37.06;26.40;99817.09;117120;1189;23581;-69
2022/08/26 09:31:20;;;;;;;41.20;9.10;;;;;;;37.23;26.53;99817.34;117329;1186;21855;-62
2022/08/26 09:34:02;;;;;;;40.40;7.70;;;;;;;37.47;26.54;99814.39;117063;1188;22932;-63
2022/08/26 09:36:34;;;;;;;35.80;7.80;;;;;;;37.75;26.48;99812.71;116962;1189;21892;-69
2022/08/26 09:39:22;;;;;;;31.60;7.80;;;;;;;38.06;26.33;99811.10;117034;1185;21867;-62
2022/08/26 09:42:04;;;;;;;37.10;8.40;;;;;;;38.41;26.00;99812.25;117177;1186;21865;-62
2022/08/26 09:44:31;;;;;;;33.30;8.30;;;;;;;38.62;25.38;99815.06;117386;1183;23558;-68
2022/08/26 09:47:06;;;;;;;33.50;8.00;;;;;;;38.68;25.39;99814.11;117328;1185;21901;-69
2022/08/26 09:49:39;;;;;;;35.50;8.20;;;;;;;38.79;25.00;99815.27;117098;1186;22698;-63
2022/08/26 09:52:13;;;;;;;34.30;8.20;;;;;;;38.94;25.14;99812.79;117201;1186;23028;-67
2022/08/26 09:54:42;;;;;;;37.50;8.60;;;;;;;39.13;25.23;99808.65;117236;1186;23554;-61
2022/08/26 09:57:15;;;;;;;37.30;7.70;;;;;;;39.31;24.83;99809.69;117154;1189;21860;-61
2022/08/26 09:59:42;;;;;;;40.20;8.70;;;;;;;39.28;24.51;99805.17;117123;1185;23583;-61
2022/08/26 10:02:18;;;;;;;40.80;8.40;;;;;;;39.24;24.75;99809.17;117168;1183;21867;-62
2022/08/26 10:04:53;;;;;;;41.70;8.00;;;;;;;39.28;24.73;99810.84;117062;1182;22929;-61
2022/08/26 10:07:45;;;;;;;44.10;8.30;;;;;;;39.34;24.50;99808.06;116896;1188;21888;-61
2022/08/26 10:10:22;;;;;;;40.10;8.80;;;;;;;39.44;24.61;99807.20;117048;1188;24731;-68
2022/08/26 10:12:56;;;;;;;34.60;8.10;;;;;;;39.49;24.43;99803.65;116898;1187;23588;-68
2022/08/26 10:15:24;;;;;;;35.40;8.00;;;;;;;39.48;24.29;99806.02;117276;1185;22655;-68
2022/08/26 10:18:10;;;;;;;32.50;7.30;;;;;;;39.42;24.06;99808.18;117408;1186;22565;-61
2022/08/26 10:20:48;;;;;;;47.60;9.00;;;;;;;39.25;24.20;99806.52;116868;1189;21871;-62
2022/08/26 10:23:21;;;;;;;38.20;8.80;;;;;;;39.12;23.93;99807.27;116878;1182;24308;-61
2022/08/26 10:25:57;;;;;;;36.80;7.50;;;;;;;38.91;23.94;99809.53;117225;1186;21903;-61
2022/08/26 10:28:37;;;;;;;36.60;9.30;;;;;;;38.69;23.97;99807.09;117131;1190;21857;-67
2022/08/26 10:31:27;;;;;;;39.10;10.10;;;;;;;38.42;23.98;99804.05;117343;1186;21873;-62
2022/08/26 10:33:55;;;;;;;38.50;9.80;;;;;;;38.09;24.01;99803.86;117118;1189;22526;-67
2022/08/26 10:36:48;;;;;;;35.20;7.40;;;;;;;37.85;24.05;99804.63;117233;1185;22945;-62
2022/08/26 10:39:54;;;;;;;37.60;7.80;;;;;;;37.65;24.23;99801.48;117189;1186;22945;-67
2022/08/26 10:42:43;;;;;;;40.30;7.90;;;;;;;37.50;24.19;99801.19;117004;1189;21861;-67
2022/08/26 10:45:13;;;;;;;27.60;7.80;;;;;;;37.30;24.19;99794.10;117173;1182;21974;-67
2022/08/26 10:47:53;;;;;;;35.00;7.70;;;;;;;37.11;24.25;99793.23;117207;1183;22927;-67
2022/08/26 10:50:29;;;;;;;41.30;8.10;;;;;;;36.97;24.12;99793.55;117138;1182;23469;-68
2022/08/26 10:53:01;;;;;;;25.50;7.00;;;;;;;36.73;24.16;99789.11;117271;1186;21935;-67
2022/08/26 10:55:28;;;;;;;35.30;7.90;;;;;;;36.53;24.45;99786.96;117290;1186;23648;-61
2022/08/26 10:58:35;;;;;;;36.90;7.10;;;;;;;36.39;24.65;99787.89;117211;1189;22767;-67
2022/08/26 11:04:22;;;;;;;29.00;7.10;;;;;;;36.07;24.43;99785.44;116965;1186;22906;-61
2022/08/26 11:07:29;;;;;;;28.70;7.40;;;;;;;35.99;24.45;99783.16;117096;1189;23049;-67
2022/08/26 11:10:00;;;;;;;33.40;6.70;;;;;;;35.82;24.48;99785.37;116935;1189;23474;-67
2022/08/26 11:12:35;;;;;;;37.30;8.20;;;;;;;35.66;24.61;99783.23;117244;1186;22931;-66
2022/08/26 11:15:10;;;;;;;30.50;6.80;;;;;;;35.57;24.77;99779.16;117119;1188;21859;-68
2022/08/26 11:17:45;;;;;;;27.70;6.90;;;;;;;35.53;24.84;99771.60;117006;1186;22920;-67
2022/08/26 11:20:22;;;;;;;36.90;7.90;;;;;;;35.59;25.07;99771.72;117153;1189;21880;-67
2022/08/26 11:23:25;;;;;;;38.50;7.80;;;;;;;35.79;25.04;99764.00;117244;1186;23020;-70
2022/08/26 11:26:08;;;;;;;35.50;8.30;;;;;;;36.08;24.98;99754.86;116859;1189;21862;-64
2022/08/26 11:28:39;;;;;;;34.20;8.60;;;;;;;36.37;24.93;99757.63;117057;1186;22367;-71
2022/08/26 11:31:10;;;;;;;41.10;8.50;;;;;;;36.69;24.64;99762.15;117251;1186;21862;-71
2022/08/26 11:33:49;;;;;;;36.00;7.50;;;;;;;37.03;24.50;99757.88;117386;1184;21860;-68
2022/08/26 11:36:35;;;;;;;36.00;8.10;;;;;;;37.32;24.08;99753.27;118199;1186;21965;-62
2022/08/26 11:39:56;;;;;;;32.20;6.80;;;;;;;37.51;24.06;99756.09;117035;1187;23474;-63
2022/08/26 11:42:29;;;;;;;38.60;7.90;;;;;;;37.72;24.00;99752.23;117024;1189;22920;-69
2022/08/26 11:44:57;;;;;;;37.00;8.30;;;;;;;37.87;23.89;99747.02;117037;1187;21862;-63
2022/08/26 11:47:29;;;;;;;34.60;7.70;;;;;;;37.90;23.78;99746.04;117056;1182;23014;-63
2022/08/26 11:50:26;;;;;;;33.50;7.30;;;;;;;37.90;23.66;99746.92;117065;1187;22804;-70